THY3QT LTFM-LTBS
Flight info
| Callsign | THY3QT |
|---|---|
| Flight time | 0h 54m |
| Altitude | 36000 |
| Route | RATVU1E/36 RATVU UT35 NUMTI DCT KULAR/N0447F370 UT44 ATSAL |
| Aircraft | A321/M-SDE1E2E3FGHIRWYLB1/LB1 |
Departure
| Time | 2026-05-05 14:29 |
|---|---|
| Airport | İstanbul Airport (LTFM) |
Arrival
| Time | 2026-05-05 15:23 |
|---|---|
| Airport | Dalaman International Airport (LTBS) |
| Time | Latitude | Longitude | Altitude | Speed | Heading |
|---|---|---|---|---|---|
| 2026-05-05 13:36 | 41.25705 | 28.74789 | 331 ft | 0 kts | 359° |
| 2026-05-05 14:19 | 41.25699 | 28.74790 | 334 ft | 4 kts | 359° |
| 2026-05-05 14:19 | 41.25676 | 28.74790 | 330 ft | 4 kts | 354° |
| 2026-05-05 14:19 | 41.25653 | 28.74801 | 329 ft | 4 kts | 309° |
| 2026-05-05 14:19 | 41.25644 | 28.74831 | 331 ft | 4 kts | 272° |
| 2026-05-05 14:20 | 41.25644 | 28.74865 | 331 ft | 4 kts | 269° |
| 2026-05-05 14:20 | 41.25644 | 28.74901 | 331 ft | 4 kts | 269° |
| 2026-05-05 14:20 | 41.25645 | 28.74936 | 331 ft | 4 kts | 269° |
| 2026-05-05 14:20 | 41.25645 | 28.74972 | 331 ft | 4 kts | 269° |
| 2026-05-05 14:21 | 41.25645 | 28.75005 | 331 ft | 4 kts | 286° |
| 2026-05-05 14:21 | 41.25632 | 28.75034 | 329 ft | 4 kts | 327° |
| 2026-05-05 14:21 | 41.25609 | 28.75044 | 331 ft | 3 kts | 359° |
| 2026-05-05 14:21 | 41.25583 | 28.75045 | 332 ft | 3 kts | 359° |
| 2026-05-05 14:22 | 41.25580 | 28.75045 | 332 ft | 1 kts | 359° |
| 2026-05-05 14:24 | 41.25593 | 28.75044 | 331 ft | 2 kts | 360° |
| 2026-05-05 14:25 | 41.25626 | 28.75056 | 330 ft | 8 kts | 31° |
| 2026-05-05 14:25 | 41.25648 | 28.75146 | 332 ft | 14 kts | 86° |
| 2026-05-05 14:25 | 41.25652 | 28.75295 | 334 ft | 18 kts | 89° |
| 2026-05-05 14:25 | 41.25689 | 28.75402 | 334 ft | 13 kts | 23° |
| 2026-05-05 14:26 | 41.25781 | 28.75403 | 329 ft | 14 kts | 358° |
| 2026-05-05 14:26 | 41.25883 | 28.75400 | 333 ft | 15 kts | 359° |
| 2026-05-05 14:26 | 41.25994 | 28.75399 | 330 ft | 16 kts | 360° |
| 2026-05-05 14:26 | 41.26111 | 28.75396 | 330 ft | 17 kts | 359° |
| 2026-05-05 14:27 | 41.26223 | 28.75404 | 330 ft | 13 kts | 27° |
| 2026-05-05 14:27 | 41.26249 | 28.75518 | 334 ft | 14 kts | 87° |
| 2026-05-05 14:27 | 41.26263 | 28.75647 | 331 ft | 13 kts | 44° |
| 2026-05-05 14:27 | 41.26349 | 28.75658 | 334 ft | 13 kts | 10° |
| 2026-05-05 14:28 | 41.26416 | 28.75663 | 332 ft | 4 kts | 359° |
| 2026-05-05 14:28 | 41.26481 | 28.75662 | 332 ft | 26 kts | 360° |
| 2026-05-05 14:28 | 41.26930 | 28.75654 | 333 ft | 101 kts | 359° |
| 2026-05-05 14:28 | 41.27839 | 28.75638 | 369 ft | 155 kts | 1° |
| 2026-05-05 14:29 | 41.28923 | 28.75628 | 1029 ft | 156 kts | 0° |
| 2026-05-05 14:29 | 41.30002 | 28.75797 | 1713 ft | 162 kts | 20° |
| 2026-05-05 14:29 | 41.30995 | 28.76657 | 2072 ft | 179 kts | 34° |
| 2026-05-05 14:29 | 41.32065 | 28.77636 | 2429 ft | 194 kts | 31° |
| 2026-05-05 14:30 | 41.33239 | 28.78639 | 2719 ft | 211 kts | 30° |
| 2026-05-05 14:30 | 41.34576 | 28.79734 | 2871 ft | 240 kts | 29° |
| 2026-05-05 14:30 | 41.36049 | 28.80880 | 3455 ft | 252 kts | 28° |
| 2026-05-05 14:30 | 41.37531 | 28.82216 | 4274 ft | 259 kts | 45° |
| 2026-05-05 14:31 | 41.38347 | 28.84337 | 5072 ft | 270 kts | 78° |
| 2026-05-05 14:31 | 41.38473 | 28.86851 | 5945 ft | 273 kts | 85° |
| 2026-05-05 14:31 | 41.38481 | 28.89397 | 6789 ft | 277 kts | 90° |
| 2026-05-05 14:31 | 41.37913 | 28.91923 | 7532 ft | 290 kts | 118° |
| 2026-05-05 14:32 | 41.36518 | 28.93847 | 8265 ft | 301 kts | 147° |
| 2026-05-05 14:32 | 41.34534 | 28.94743 | 8989 ft | 308 kts | 175° |
| 2026-05-05 14:32 | 41.32380 | 28.94828 | 9745 ft | 312 kts | 180° |
| 2026-05-05 14:32 | 41.30176 | 28.94853 | 10268 ft | 326 kts | 180° |
| 2026-05-05 14:33 | 41.27826 | 28.94869 | 10462 ft | 349 kts | 180° |
| 2026-05-05 14:33 | 41.25337 | 28.94886 | 10845 ft | 363 kts | 181° |
| 2026-05-05 14:33 | 41.22796 | 28.94787 | 11519 ft | 368 kts | 183° |
| 2026-05-05 14:33 | 41.20228 | 28.94568 | 12213 ft | 372 kts | 185° |
| 2026-05-05 14:34 | 41.17639 | 28.94285 | 12910 ft | 376 kts | 185° |
| 2026-05-05 14:34 | 41.15021 | 28.93985 | 13594 ft | 380 kts | 185° |
| 2026-05-05 14:34 | 41.12375 | 28.93691 | 14236 ft | 383 kts | 185° |
| 2026-05-05 14:34 | 41.09702 | 28.93413 | 14888 ft | 385 kts | 185° |
| 2026-05-05 14:35 | 41.07026 | 28.93156 | 15562 ft | 387 kts | 184° |
| 2026-05-05 14:35 | 41.04331 | 28.92907 | 16242 ft | 389 kts | 184° |
| 2026-05-05 14:35 | 41.01615 | 28.92661 | 16918 ft | 391 kts | 184° |
| 2026-05-05 14:35 | 40.98896 | 28.92396 | 17576 ft | 394 kts | 182° |
| 2026-05-05 14:36 | 40.96202 | 28.92747 | 18189 ft | 396 kts | 165° |
| 2026-05-05 14:36 | 40.93605 | 28.93983 | 18764 ft | 398 kts | 158° |
| 2026-05-05 14:36 | 40.90984 | 28.95353 | 19321 ft | 401 kts | 158° |
| 2026-05-05 14:36 | 40.88388 | 28.96711 | 19908 ft | 402 kts | 159° |
| 2026-05-05 14:37 | 40.85781 | 28.97955 | 20511 ft | 404 kts | 161° |
| 2026-05-05 14:37 | 40.83099 | 28.99117 | 21085 ft | 406 kts | 162° |
| 2026-05-05 14:37 | 40.80393 | 29.00223 | 21644 ft | 409 kts | 162° |
| 2026-05-05 14:37 | 40.77657 | 29.01322 | 22182 ft | 412 kts | 163° |
| 2026-05-05 14:38 | 40.74906 | 29.02439 | 22717 ft | 416 kts | 162° |
| 2026-05-05 14:38 | 40.72133 | 29.03583 | 23257 ft | 419 kts | 162° |
| 2026-05-05 14:38 | 40.69352 | 29.04748 | 23772 ft | 421 kts | 162° |
| 2026-05-05 14:38 | 40.66550 | 29.05932 | 24196 ft | 424 kts | 162° |
| 2026-05-05 14:39 | 40.63733 | 29.07131 | 24618 ft | 426 kts | 161° |
| 2026-05-05 14:39 | 40.60907 | 29.08333 | 25042 ft | 428 kts | 161° |
| 2026-05-05 14:39 | 40.58062 | 29.09537 | 25464 ft | 431 kts | 162° |
| 2026-05-05 14:39 | 40.55198 | 29.10748 | 25835 ft | 434 kts | 162° |
| 2026-05-05 14:40 | 40.52311 | 29.11967 | 26201 ft | 437 kts | 162° |
| 2026-05-05 14:40 | 40.49404 | 29.13186 | 26590 ft | 440 kts | 162° |
| 2026-05-05 14:40 | 40.46481 | 29.14409 | 26971 ft | 442 kts | 162° |
| 2026-05-05 14:40 | 40.43538 | 29.15641 | 27363 ft | 444 kts | 162° |
| 2026-05-05 14:41 | 40.40581 | 29.16877 | 27750 ft | 447 kts | 162° |
| 2026-05-05 14:41 | 40.37649 | 29.18103 | 28130 ft | 449 kts | 162° |
| 2026-05-05 14:41 | 40.34663 | 29.19353 | 28517 ft | 452 kts | 162° |
| 2026-05-05 14:41 | 40.31617 | 29.20631 | 28851 ft | 455 kts | 162° |
| 2026-05-05 14:42 | 40.28628 | 29.21882 | 29190 ft | 458 kts | 162° |
| 2026-05-05 14:42 | 40.25593 | 29.23146 | 29526 ft | 460 kts | 162° |
| 2026-05-05 14:42 | 40.22531 | 29.24420 | 29869 ft | 462 kts | 162° |
| 2026-05-05 14:42 | 40.19461 | 29.25695 | 30223 ft | 464 kts | 162° |
| 2026-05-05 14:43 | 40.16373 | 29.26982 | 30588 ft | 465 kts | 162° |
| 2026-05-05 14:43 | 40.13290 | 29.28279 | 30919 ft | 467 kts | 162° |
| 2026-05-05 14:43 | 40.10186 | 29.29597 | 31170 ft | 471 kts | 162° |
| 2026-05-05 14:43 | 40.07051 | 29.30930 | 31494 ft | 472 kts | 162° |
| 2026-05-05 14:44 | 40.03931 | 29.32252 | 31892 ft | 472 kts | 162° |
| 2026-05-05 14:44 | 40.00805 | 29.33573 | 32296 ft | 471 kts | 162° |
| 2026-05-05 14:44 | 39.97692 | 29.34886 | 32705 ft | 470 kts | 162° |
| 2026-05-05 14:44 | 39.94582 | 29.36193 | 33098 ft | 469 kts | 163° |
| 2026-05-05 14:45 | 39.91517 | 29.37477 | 33479 ft | 469 kts | 162° |
| 2026-05-05 14:45 | 39.88471 | 29.39030 | 33805 ft | 470 kts | 158° |
| 2026-05-05 14:45 | 39.85461 | 29.40689 | 34135 ft | 470 kts | 158° |
| 2026-05-05 14:45 | 39.82447 | 29.42347 | 34427 ft | 470 kts | 158° |
| 2026-05-05 14:46 | 39.79426 | 29.44009 | 34713 ft | 471 kts | 158° |
| 2026-05-05 14:46 | 39.76415 | 29.45667 | 34990 ft | 471 kts | 158° |
| 2026-05-05 14:46 | 39.73392 | 29.47330 | 35269 ft | 472 kts | 158° |
| 2026-05-05 14:46 | 39.70305 | 29.48753 | 35536 ft | 471 kts | 167° |
| 2026-05-05 14:47 | 39.67076 | 29.49426 | 35759 ft | 469 kts | 179° |
| 2026-05-05 14:47 | 39.63821 | 29.49304 | 35959 ft | 468 kts | 190° |
| 2026-05-05 14:47 | 39.60653 | 29.48413 | 36054 ft | 464 kts | 201° |
| 2026-05-05 14:47 | 39.57737 | 29.46836 | 36072 ft | 458 kts | 212° |
| 2026-05-05 14:48 | 39.52409 | 29.42400 | 36075 ft | 455 kts | 217° |
| 2026-05-05 14:48 | 39.47123 | 29.37889 | 36064 ft | 455 kts | 217° |
| 2026-05-05 14:49 | 39.41828 | 29.33386 | 36069 ft | 455 kts | 217° |
| 2026-05-05 14:49 | 39.36532 | 29.28887 | 36065 ft | 456 kts | 217° |
| 2026-05-05 14:50 | 39.31223 | 29.24388 | 36066 ft | 456 kts | 217° |
| 2026-05-05 14:50 | 39.25909 | 29.19880 | 36038 ft | 458 kts | 217° |
| 2026-05-05 14:51 | 39.20617 | 29.15395 | 36050 ft | 455 kts | 217° |
| 2026-05-05 14:51 | 39.15306 | 29.10919 | 36064 ft | 457 kts | 217° |
| 2026-05-05 14:52 | 39.09985 | 29.06453 | 36064 ft | 457 kts | 217° |
| 2026-05-05 14:52 | 39.04689 | 29.02020 | 36063 ft | 457 kts | 217° |
| 2026-05-05 14:53 | 38.99360 | 28.97545 | 36060 ft | 457 kts | 217° |
| 2026-05-05 14:53 | 38.94043 | 28.93075 | 36054 ft | 457 kts | 217° |
| 2026-05-05 14:54 | 38.89620 | 28.89368 | 36065 ft | 457 kts | 217° |
| 2026-05-05 14:54 | 38.84283 | 28.84914 | 36058 ft | 457 kts | 217° |
| 2026-05-05 14:55 | 38.78946 | 28.80471 | 35855 ft | 457 kts | 217° |
| 2026-05-05 14:55 | 38.76284 | 28.78259 | 35615 ft | 456 kts | 217° |
| 2026-05-05 14:55 | 38.73619 | 28.76048 | 35365 ft | 457 kts | 217° |
| 2026-05-05 14:56 | 38.70953 | 28.73835 | 35128 ft | 456 kts | 217° |
| 2026-05-05 14:56 | 38.68289 | 28.71623 | 34875 ft | 456 kts | 217° |
| 2026-05-05 14:56 | 38.65634 | 28.69418 | 34639 ft | 454 kts | 217° |
| 2026-05-05 14:56 | 38.62979 | 28.67225 | 34402 ft | 453 kts | 216° |
| 2026-05-05 14:57 | 38.60159 | 28.65399 | 34154 ft | 458 kts | 205° |
| 2026-05-05 14:57 | 38.57096 | 28.64217 | 33896 ft | 462 kts | 195° |
| 2026-05-05 14:57 | 38.53893 | 28.63740 | 33622 ft | 465 kts | 184° |
| 2026-05-05 14:57 | 38.50662 | 28.63909 | 33342 ft | 465 kts | 179° |
| 2026-05-05 14:58 | 38.47436 | 28.64186 | 33067 ft | 463 kts | 179° |
| 2026-05-05 14:58 | 38.44228 | 28.64450 | 32796 ft | 461 kts | 179° |
| 2026-05-05 14:58 | 38.41037 | 28.64706 | 32544 ft | 458 kts | 179° |
| 2026-05-05 14:58 | 38.37864 | 28.64960 | 32290 ft | 456 kts | 179° |
| 2026-05-05 14:59 | 38.34707 | 28.65219 | 32027 ft | 454 kts | 179° |
| 2026-05-05 14:59 | 38.31559 | 28.65479 | 31769 ft | 452 kts | 179° |
| 2026-05-05 14:59 | 38.28474 | 28.65736 | 31511 ft | 450 kts | 180° |
| 2026-05-05 14:59 | 38.25349 | 28.65996 | 31258 ft | 448 kts | 180° |
| 2026-05-05 15:00 | 38.22250 | 28.66255 | 31004 ft | 446 kts | 180° |
| 2026-05-05 15:00 | 38.20154 | 28.66429 | 30855 ft | 445 kts | 180° |
| 2026-05-05 15:00 | 38.16074 | 28.66764 | 30525 ft | 441 kts | 180° |
| 2026-05-05 15:00 | 38.13021 | 28.67012 | 30289 ft | 438 kts | 180° |
| 2026-05-05 15:01 | 38.09983 | 28.67258 | 30038 ft | 436 kts | 180° |
| 2026-05-05 15:01 | 38.06961 | 28.67502 | 29736 ft | 434 kts | 180° |
| 2026-05-05 15:01 | 38.03949 | 28.67749 | 29449 ft | 432 kts | 180° |
| 2026-05-05 15:01 | 38.00957 | 28.67996 | 29162 ft | 430 kts | 180° |
| 2026-05-05 15:02 | 37.97976 | 28.68241 | 28890 ft | 428 kts | 180° |
| 2026-05-05 15:02 | 37.95009 | 28.68484 | 28615 ft | 425 kts | 180° |
| 2026-05-05 15:02 | 37.92067 | 28.68722 | 28344 ft | 423 kts | 180° |
| 2026-05-05 15:02 | 37.89134 | 28.68960 | 28074 ft | 421 kts | 180° |
| 2026-05-05 15:03 | 37.86226 | 28.69194 | 27788 ft | 418 kts | 180° |
| 2026-05-05 15:03 | 37.83323 | 28.69429 | 27524 ft | 416 kts | 180° |
| 2026-05-05 15:03 | 37.80444 | 28.69666 | 27361 ft | 414 kts | 180° |
| 2026-05-05 15:03 | 37.77577 | 28.69902 | 27001 ft | 412 kts | 180° |
| 2026-05-05 15:04 | 37.74764 | 28.70134 | 26768 ft | 407 kts | 180° |
| 2026-05-05 15:04 | 37.71947 | 28.70364 | 26377 ft | 404 kts | 180° |
| 2026-05-05 15:04 | 37.69146 | 28.70580 | 25977 ft | 402 kts | 181° |
| 2026-05-05 15:04 | 37.66362 | 28.70777 | 25560 ft | 400 kts | 181° |
| 2026-05-05 15:05 | 37.60827 | 28.71152 | 24734 ft | 396 kts | 181° |
| 2026-05-05 15:05 | 37.58076 | 28.71340 | 24323 ft | 395 kts | 181° |
| 2026-05-05 15:05 | 37.55332 | 28.71531 | 23901 ft | 394 kts | 181° |
| 2026-05-05 15:06 | 37.52599 | 28.71709 | 23431 ft | 391 kts | 184° |
| 2026-05-05 15:06 | 37.49920 | 28.71446 | 22990 ft | 382 kts | 195° |
| 2026-05-05 15:06 | 37.47392 | 28.70574 | 22546 ft | 373 kts | 206° |
| 2026-05-05 15:06 | 37.45001 | 28.69363 | 22108 ft | 368 kts | 207° |
| 2026-05-05 15:07 | 37.42640 | 28.68169 | 21705 ft | 365 kts | 206° |
| 2026-05-05 15:07 | 37.40326 | 28.67001 | 21275 ft | 362 kts | 206° |
| 2026-05-05 15:07 | 37.38000 | 28.65831 | 20852 ft | 359 kts | 206° |
| 2026-05-05 15:07 | 37.35680 | 28.64665 | 20426 ft | 357 kts | 206° |
| 2026-05-05 15:08 | 37.33377 | 28.63508 | 19989 ft | 355 kts | 206° |
| 2026-05-05 15:08 | 37.31090 | 28.62357 | 19564 ft | 353 kts | 206° |
| 2026-05-05 15:08 | 37.28815 | 28.61214 | 19141 ft | 351 kts | 206° |
| 2026-05-05 15:08 | 37.26555 | 28.60080 | 18718 ft | 349 kts | 206° |
| 2026-05-05 15:09 | 37.24253 | 28.59110 | 18293 ft | 351 kts | 196° |
| 2026-05-05 15:09 | 37.21816 | 28.58792 | 17813 ft | 355 kts | 182° |
| 2026-05-05 15:09 | 37.19353 | 28.59209 | 17296 ft | 359 kts | 168° |
| 2026-05-05 15:09 | 37.16939 | 28.59988 | 16851 ft | 357 kts | 166° |
| 2026-05-05 15:10 | 37.14711 | 28.61254 | 16716 ft | 349 kts | 143° |
| 2026-05-05 15:10 | 37.13113 | 28.63392 | 16552 ft | 338 kts | 119° |
| 2026-05-05 15:10 | 37.12313 | 28.66114 | 16107 ft | 333 kts | 92° |
| 2026-05-05 15:10 | 37.12420 | 28.68947 | 15687 ft | 326 kts | 77° |
| 2026-05-05 15:11 | 37.12804 | 28.71742 | 15353 ft | 323 kts | 76° |
| 2026-05-05 15:11 | 37.13195 | 28.74501 | 15040 ft | 320 kts | 76° |
| 2026-05-05 15:11 | 37.13589 | 28.77232 | 14715 ft | 318 kts | 76° |
| 2026-05-05 15:11 | 37.13983 | 28.79946 | 14403 ft | 316 kts | 76° |
| 2026-05-05 15:12 | 37.14371 | 28.82644 | 14056 ft | 313 kts | 76° |
| 2026-05-05 15:12 | 37.14749 | 28.85318 | 13573 ft | 311 kts | 76° |
| 2026-05-05 15:12 | 37.15120 | 28.87967 | 13067 ft | 307 kts | 77° |
| 2026-05-05 15:12 | 37.15482 | 28.90593 | 12471 ft | 305 kts | 79° |
| 2026-05-05 15:13 | 37.15532 | 28.93225 | 11768 ft | 303 kts | 96° |
| 2026-05-05 15:13 | 37.14948 | 28.95755 | 11062 ft | 302 kts | 114° |
| 2026-05-05 15:13 | 37.13815 | 28.97896 | 10592 ft | 291 kts | 132° |
| 2026-05-05 15:13 | 37.12368 | 28.99586 | 10172 ft | 278 kts | 137° |
| 2026-05-05 15:14 | 37.10967 | 29.01148 | 9776 ft | 262 kts | 137° |
| 2026-05-05 15:14 | 37.09637 | 29.02642 | 9352 ft | 250 kts | 137° |
| 2026-05-05 15:14 | 37.08372 | 29.04023 | 9070 ft | 242 kts | 144° |
| 2026-05-05 15:14 | 37.06850 | 29.04944 | 9041 ft | 241 kts | 165° |
| 2026-05-05 15:15 | 37.05182 | 29.05150 | 8910 ft | 244 kts | 185° |
| 2026-05-05 15:15 | 37.03550 | 29.04590 | 8272 ft | 251 kts | 210° |
| 2026-05-05 15:15 | 37.02042 | 29.03465 | 7754 ft | 254 kts | 213° |
| 2026-05-05 15:15 | 37.00539 | 29.02341 | 7225 ft | 248 kts | 213° |
| 2026-05-05 15:16 | 36.99072 | 29.01262 | 6734 ft | 241 kts | 212° |
| 2026-05-05 15:16 | 36.97648 | 29.00220 | 6281 ft | 234 kts | 213° |
| 2026-05-05 15:16 | 36.96259 | 28.99203 | 5912 ft | 230 kts | 212° |
| 2026-05-05 15:16 | 36.94873 | 28.98188 | 5525 ft | 230 kts | 213° |
| 2026-05-05 15:17 | 36.93542 | 28.97079 | 5155 ft | 229 kts | 221° |
| 2026-05-05 15:17 | 36.92325 | 28.95783 | 4788 ft | 230 kts | 221° |
| 2026-05-05 15:17 | 36.91097 | 28.94476 | 4363 ft | 234 kts | 223° |
| 2026-05-05 15:17 | 36.89856 | 28.93155 | 3996 ft | 236 kts | 223° |
| 2026-05-05 15:18 | 36.88606 | 28.91826 | 3622 ft | 233 kts | 223° |
| 2026-05-05 15:18 | 36.87435 | 28.90592 | 3521 ft | 207 kts | 224° |
| 2026-05-05 15:18 | 36.86387 | 28.89492 | 3454 ft | 191 kts | 225° |
| 2026-05-05 15:18 | 36.85387 | 28.88547 | 3378 ft | 179 kts | 214° |
| 2026-05-05 15:19 | 36.84296 | 28.87749 | 3056 ft | 181 kts | 214° |
| 2026-05-05 15:19 | 36.83226 | 28.86968 | 2758 ft | 175 kts | 212° |
| 2026-05-05 15:19 | 36.82201 | 28.86220 | 2481 ft | 166 kts | 213° |
| 2026-05-05 15:19 | 36.81227 | 28.85510 | 2234 ft | 158 kts | 213° |
| 2026-05-05 15:20 | 36.80289 | 28.84826 | 1989 ft | 157 kts | 211° |
| 2026-05-05 15:20 | 36.79363 | 28.84150 | 1790 ft | 149 kts | 211° |
| 2026-05-05 15:20 | 36.78479 | 28.83485 | 1531 ft | 148 kts | 216° |
| 2026-05-05 15:20 | 36.77653 | 28.82723 | 1301 ft | 146 kts | 220° |
| 2026-05-05 15:21 | 36.76815 | 28.82008 | 1174 ft | 145 kts | 219° |
| 2026-05-05 15:21 | 36.75968 | 28.81320 | 912 ft | 145 kts | 215° |
| 2026-05-05 15:21 | 36.75110 | 28.80732 | 666 ft | 137 kts | 207° |
| 2026-05-05 15:21 | 36.74228 | 28.80297 | 413 ft | 136 kts | 202° |
| 2026-05-05 15:22 | 36.73336 | 28.79944 | 218 ft | 136 kts | 197° |
| 2026-05-05 15:22 | 36.72432 | 28.79637 | 42 ft | 133 kts | 198° |
| 2026-05-05 15:22 | 36.71615 | 28.79353 | 12 ft | 104 kts | 195° |
| 2026-05-05 15:22 | 36.71086 | 28.79173 | 13 ft | 54 kts | 195° |
| 2026-05-05 15:23 | 36.70793 | 28.79071 | 13 ft | 37 kts | 198° |
| 2026-05-05 15:23 | 36.70614 | 28.78920 | 13 ft | 24 kts | 225° |
| 2026-05-05 15:23 | 36.70614 | 28.78811 | 13 ft | 18 kts | 344° |
| 2026-05-05 15:23 | 36.70757 | 28.78848 | 13 ft | 26 kts | 15° |
| 2026-05-05 15:24 | 36.70943 | 28.78912 | 13 ft | 28 kts | 13° |
| 2026-05-05 15:24 | 36.71135 | 28.78978 | 13 ft | 29 kts | 15° |
| 2026-05-05 15:24 | 36.71328 | 28.79044 | 13 ft | 28 kts | 15° |
| 2026-05-05 15:24 | 36.71515 | 28.79106 | 13 ft | 28 kts | 15° |
| 2026-05-05 15:25 | 36.71710 | 28.79172 | 12 ft | 29 kts | 15° |
| 2026-05-05 15:25 | 36.71860 | 28.79186 | 13 ft | 15 kts | 323° |
| 2026-05-05 15:25 | 36.71900 | 28.79059 | 13 ft | 17 kts | 300° |
| 2026-05-05 15:25 | 36.72011 | 28.79053 | 12 ft | 18 kts | 15° |
| 2026-05-05 15:26 | 36.72104 | 28.79040 | 12 ft | 7 kts | 297° |
| 2026-05-05 15:26 | 36.72112 | 28.79010 | 12 ft | 0 kts | 287° |